Flight Track Log - Related Links

Times and Time Zones

All times are in EDT time to prevent confusion due to time zone crossing. See the KAL1335 flight status page for this flight to view local times or setup timezone preferences in your user account.

Time Position Orientation Groundspeed Altitude Reporting Facility
EDT Latitude Longitude Course Direction KTS MPH feet Rate Location/Type
Sun 12:29:00 AM 37.1193 126.9278 166° South  Level Estimated
Sun 12:30:00 AM 37.0315 126.9551 166° South  Level Estimated
Sun 12:31:00 AM 36.9436 126.9823 166° South  Level Estimated
Sun 12:32:00 AM 36.8558 127.0095 166° South  Level Estimated
Sun 12:33:00 AM 36.7680 127.0365 166° South  Level Estimated
Sun 12:34:00 AM 36.6801 127.0635 166° South  Level Estimated
Sun 12:35:00 AM 36.5923 127.0905 166° South  Level Estimated
Sun 12:36:00 AM 36.5044 127.1174 166° South  Level Estimated
Sun 12:37:00 AM 36.4165 127.1442 166° South  Level Estimated
Sun 12:38:00 AM 36.3287 127.1710 166° South  Level Estimated
Sun 12:39:00 AM 36.2408 127.1977 166° South  Level Estimated
Sun 12:40:00 AM 36.1529 127.2243 166° South  Level Estimated
Sun 12:41:00 AM 36.0650 127.2509 166° South  Level Estimated
Sun 12:42:00 AM 35.9771 127.2775 166° South  Level Estimated
Sun 12:43:00 AM 35.8892 127.3039 166° South  Level Estimated
Sun 12:44:00 AM 35.8013 127.3303 166° South  Level Estimated
Sun 12:45:00 AM 35.7134 127.3567 166° South  Level Estimated
Sun 12:46:00 AM 35.6255 127.3830 166° South  Level Estimated
Sun 12:47:00 AM 35.5346 127.4101 166° South  Level Estimated
Sun 12:48:00 AM 35.4437 127.4371 166° South  Level Estimated
Sun 12:49:00 AM 35.3529 127.4641 166° South  Level Estimated
Sun 12:50:00 AM 35.2620 127.4911 166° South  Level Estimated
Sun 12:51:00 AM 35.1711 127.5179 166° South  Level Estimated
Sun 12:52:00 AM 35.0802 127.5447 166° South  Level Estimated
Sun 12:53:00 AM 34.9893 127.5715 166° South  Level Estimated
Sun 12:54:00 AM 34.8984 127.5982 166° South  Level Estimated
Sun 12:55:00 AM 34.8398 127.6153 166° South  Level Estimated
Sun 12:56:00 AM 34.8398 127.6153 180° South  Level Estimated
Sun 12:57:00 AM 34.8398 127.6153 180° South  Level Estimated
Sun 12:58:00 AM 34.8398 127.6153 180° South  Level Estimated
Sun 12:59:00 AM 34.8398 127.6153 180° South  Level Estimated
Sun 01:00:00 AM 34.8398 127.6153 180° South  Level Estimated
Sun 01:01:00 AM 34.8398 127.6153 180° South  Level Estimated
Sun 01:02:00 AM 34.8398 127.6153 180° South  Level Estimated
Sun 01:03:00 AM 34.8398 127.6153 180° South  Level Estimated

Login

Don't have an account? Register now (free) for customized features, flight alerts, and more!